Time;durP1;ratioP1;P1;durP2;ratioP2;P2;SDS_P1;SDS_P2;PMS_P1;PMS_P2;Temp;Humidity;BMP_temperature;BMP_pressure;BME280_temperature;BME280_humidity;BME280_pressure;Samples;Min_cycle;Max_cycle;Signal;HPM_P1;HPM_P2
2022/09/18 00:01:44;;;;;;;7.20;2.30;;;10.80;99.90;;;;;;4919639;29;20461;-70
2022/09/18 00:04:14;;;;;;;4.13;2.13;;;10.70;99.90;;;;;;4925607;29;20464;-72
2022/09/18 00:06:44;;;;;;;5.70;2.30;;;10.70;99.90;;;;;;4930301;29;20449;-71
2022/09/18 00:09:14;;;;;;;3.27;2.73;;;10.80;99.90;;;;;;4919063;29;20729;-71
2022/09/18 00:11:45;;;;;;;5.47;2.17;;;10.80;99.90;;;;;;4919265;29;20431;-71
2022/09/18 00:14:18;;;;;;;2.60;1.90;;;10.70;99.90;;;;;;4922072;29;20471;-72
2022/09/18 00:16:47;;;;;;;4.30;2.10;;;10.70;99.90;;;;;;4914661;29;20475;-73
2022/09/18 00:19:16;;;;;;;3.30;2.43;;;10.70;99.90;;;;;;4924374;29;20433;-71
2022/09/18 00:21:47;;;;;;;2.03;1.67;;;10.80;99.90;;;;;;4920832;29;20437;-72
2022/09/18 00:24:17;;;;;;;2.40;2.20;;;10.70;99.90;;;;;;4899408;29;20494;-72
2022/09/18 00:26:46;;;;;;;3.27;2.13;;;10.70;99.90;;;;;;4921871;29;20419;-71
2022/09/18 00:29:17;;;;;;;4.40;2.27;;;10.70;99.90;;;;;;4908622;29;20766;-71
2022/09/18 00:31:46;;;;;;;3.07;2.33;;;10.70;99.90;;;;;;4899285;29;20482;-73
2022/09/18 00:34:15;;;;;;;2.60;2.33;;;10.70;99.90;;;;;;4905130;29;20448;-73
2022/09/18 00:36:44;;;;;;;3.80;2.00;;;10.70;99.90;;;;;;4922244;29;20420;-71
2022/09/18 00:39:13;;;;;;;2.20;1.87;;;10.70;99.90;;;;;;4915746;29;20481;-72
2022/09/18 00:41:44;;;;;;;3.10;1.43;;;10.70;99.90;;;;;;4916634;29;20931;-71
2022/09/18 00:44:36;;;;;;;1.67;1.33;;;10.60;99.90;;;;;;4919064;29;20843;-71
2022/09/18 00:47:20;;;;;;;6.30;2.13;;;10.60;99.90;;;;;;4912384;29;20518;-74
2022/09/18 00:49:52;;;;;;;2.97;1.90;;;10.50;99.90;;;;;;4919891;29;20459;-71
2022/09/18 00:52:26;;;;;;;2.47;1.20;;;10.60;99.90;;;;;;4910515;29;20419;-72
2022/09/18 00:55:00;;;;;;;1.40;0.90;;;10.50;99.90;;;;;;4918609;29;20430;-72
2022/09/18 00:57:33;;;;;;;2.53;1.43;;;10.50;99.90;;;;;;4909908;29;20424;-72
2022/09/18 01:00:08;;;;;;;1.10;0.80;;;10.50;99.90;;;;;;4923386;29;20412;-71
2022/09/18 01:02:37;;;;;;;1.43;1.23;;;10.50;99.90;;;;;;4928720;29;20440;-71
2022/09/18 01:05:07;;;;;;;3.77;0.90;;;10.50;99.90;;;;;;4904191;29;20456;-72
2022/09/18 01:07:49;;;;;;;1.30;0.97;;;10.50;99.90;;;;;;4908420;29;20463;-72
2022/09/18 01:10:31;;;;;;;1.53;1.07;;;10.40;99.90;;;;;;4904453;29;20422;-71
2022/09/18 01:13:06;;;;;;;1.73;0.90;;;10.40;99.90;;;;;;4921225;29;20457;-72
2022/09/18 01:15:47;;;;;;;3.67;1.53;;;10.30;99.90;;;;;;4907772;29;20435;-74
2022/09/18 01:18:25;;;;;;;1.40;0.80;;;10.30;99.90;;;;;;4914509;29;20975;-72
2022/09/18 01:21:13;;;;;;;1.80;1.20;;;10.20;99.90;;;;;;4926854;29;20797;-73
2022/09/18 01:24:18;;;;;;;1.90;1.30;;;10.20;99.90;;;;;;4907698;29;20473;-72
2022/09/18 01:26:54;;;;;;;1.40;0.90;;;10.30;99.90;;;;;;4906101;29;20951;-71
2022/09/18 01:29:39;;;;;;;5.63;1.10;;;10.30;99.90;;;;;;4902175;29;20792;-72
2022/09/18 01:32:14;;;;;;;1.30;0.90;;;10.20;99.90;;;;;;4897474;29;21033;-71
2022/09/18 01:34:48;;;;;;;1.00;0.70;;;10.20;99.90;;;;;;4909925;29;20837;-73
2022/09/18 01:37:21;;;;;;;1.97;1.40;;;10.20;99.90;;;;;;4907135;29;20424;-72
2022/09/18 01:39:54;;;;;;;1.37;0.87;;;10.20;99.90;;;;;;4924133;29;20420;-72
2022/09/18 01:42:27;;;;;;;1.53;0.83;;;10.10;99.90;;;;;;4905866;29;20442;-72
2022/09/18 01:45:01;;;;;;;1.10;0.70;;;10.20;99.90;;;;;;4902243;29;20991;-71
2022/09/18 01:47:38;;;;;;;1.70;0.73;;;10.10;99.90;;;;;;4921049;29;20449;-73
2022/09/18 01:50:09;;;;;;;3.43;0.60;;;10.10;99.90;;;;;;4900476;29;20213;-72
2022/09/18 01:52:44;;;;;;;2.60;0.80;;;10.20;99.90;;;;;;4901145;29;20461;-71
2022/09/18 01:55:19;;;;;;;1.67;0.70;;;10.20;99.90;;;;;;4920525;29;20987;-72
2022/09/18 01:57:53;;;;;;;1.30;0.60;;;10.20;99.90;;;;;;4905651;29;20432;-70
2022/09/18 02:00:24;;;;;;;1.17;0.83;;;10.20;99.90;;;;;;4906500;29;20507;-72
2022/09/18 02:02:57;;;;;;;5.87;0.90;;;10.20;99.90;;;;;;4901989;29;20424;-72
2022/09/18 02:05:33;;;;;;;1.47;0.90;;;10.20;99.90;;;;;;4909254;29;20492;-73
2022/09/18 02:08:10;;;;;;;1.00;0.70;;;10.20;99.90;;;;;;4905037;29;20520;-71
2022/09/18 02:10:42;;;;;;;1.53;0.80;;;10.30;99.90;;;;;;4904873;29;20457;-74
2022/09/18 02:13:16;;;;;;;0.90;0.60;;;10.30;99.90;;;;;;4903077;29;20496;-72
2022/09/18 02:15:49;;;;;;;3.90;0.80;;;10.20;99.90;;;;;;4916471;29;20464;-74
2022/09/18 02:18:25;;;;;;;1.53;0.80;;;10.20;99.90;;;;;;4892401;29;20432;-72
2022/09/18 02:20:55;;;;;;;1.23;0.70;;;10.20;99.90;;;;;;4910649;29;20445;-69
2022/09/18 02:23:25;;;;;;;3.00;2.30;;;10.20;99.90;;;;;;4908236;29;20415;-70
2022/09/18 02:25:57;;;;;;;1.60;0.80;;;10.20;99.90;;;;;;4906898;29;21052;-71
2022/09/18 02:28:28;;;;;;;1.20;0.80;;;10.20;99.90;;;;;;4920656;29;20419;-71
2022/09/18 02:30:58;;;;;;;1.60;0.80;;;10.20;99.90;;;;;;4918631;29;20484;-72
2022/09/18 02:33:29;;;;;;;1.40;0.77;;;10.20;99.90;;;;;;4931076;28;20513;-70
2022/09/18 02:36:29;;;;;;;3.57;1.27;;;10.20;99.90;;;;;;4917473;29;20431;-72
2022/09/18 02:39:07;;;;;;;5.27;0.93;;;10.10;99.90;;;;;;4907505;29;20449;-72
2022/09/18 02:41:44;;;;;;;1.90;1.33;;;10.20;99.90;;;;;;4892707;29;20436;-70
2022/09/18 02:44:19;;;;;;;1.73;1.53;;;10.10;99.90;;;;;;4920367;29;20455;-72
2022/09/18 02:47:01;;;;;;;5.63;2.03;;;10.20;99.90;;;;;;4909689;29;20460;-70
2022/09/18 02:49:41;;;;;;;6.93;1.80;;;10.10;99.90;;;;;;4916358;29;20432;-70
2022/09/18 02:52:16;;;;;;;3.37;1.77;;;10.20;99.90;;;;;;4904400;29;20533;-69
2022/09/18 02:54:52;;;;;;;4.70;1.30;;;10.20;99.90;;;;;;4916320;29;20443;-70
2022/09/18 02:57:27;;;;;;;2.67;1.50;;;10.20;99.90;;;;;;4926033;29;20404;-71
2022/09/18 02:59:58;;;;;;;6.20;3.27;;;10.10;99.90;;;;;;4993509;23;20474;-70
2022/09/18 03:02:29;;;;;;;2.55;1.30;;;10.10;99.90;;;;;;4965029;28;20439;-70
2022/09/18 03:04:58;;;;;;;8.63;2.63;;;10.20;99.90;;;;;;4949358;28;20245;-71
2022/09/18 03:07:33;;;;;;;7.50;2.70;;;10.20;99.90;;;;;;4927893;29;20427;-71
2022/09/18 03:10:03;;;;;;;3.40;2.10;;;10.20;99.90;;;;;;4956470;28;20410;-70
2022/09/18 03:12:32;;;;;;;6.53;1.83;;;10.10;99.90;;;;;;4953966;23;20513;-71
2022/09/18 03:15:03;;;;;;;4.13;1.90;;;10.10;99.90;;;;;;4953182;29;20463;-71
2022/09/18 03:17:34;;;;;;;6.70;2.20;;;10.20;99.90;;;;;;4955380;28;20845;-71
2022/09/18 03:20:05;;;;;;;6.93;2.00;;;10.20;99.90;;;;;;4954172;28;20426;-71
2022/09/18 03:22:34;;;;;;;4.50;2.17;;;10.10;99.90;;;;;;4970647;28;20430;-71
2022/09/18 03:25:03;;;;;;;3.47;1.80;;;10.10;99.90;;;;;;4969626;28;21155;-71
2022/09/18 03:27:33;;;;;;;4.40;2.33;;;10.10;99.90;;;;;;4949868;29;20426;-71
2022/09/18 03:30:02;;;;;;;6.90;2.20;;;10.20;99.90;;;;;;4968534;28;20996;-72
2022/09/18 03:32:34;;;;;;;14.57;2.97;;;10.10;99.90;;;;;;4976385;28;20199;-71
2022/09/18 03:35:06;;;;;;;5.83;2.60;;;10.20;99.90;;;;;;4947117;28;20478;-72
2022/09/18 03:37:35;;;;;;;4.97;1.77;;;10.10;99.90;;;;;;4943065;29;20448;-72
2022/09/18 03:40:08;;;;;;;5.23;1.97;;;10.20;99.90;;;;;;4951354;29;20509;-72
2022/09/18 03:42:37;;;;;;;11.70;2.37;;;10.20;99.90;;;;;;4951748;29;20819;-72
2022/09/18 03:45:08;;;;;;;4.80;2.43;;;10.20;99.90;;;;;;4942555;28;20460;-71
2022/09/18 03:47:39;;;;;;;3.17;2.03;;;10.20;99.90;;;;;;4953131;28;20430;-71
2022/09/18 03:50:10;;;;;;;8.10;2.70;;;10.10;99.90;;;;;;4939617;29;20423;-72
2022/09/18 03:52:39;;;;;;;15.63;2.60;;;10.20;99.90;;;;;;4950499;29;20448;-71
2022/09/18 03:55:31;;;;;;;15.13;2.90;;;10.10;99.90;;;;;;4946849;28;20483;-71
2022/09/18 03:58:26;;;;;;;6.93;1.87;;;10.20;99.90;;;;;;4954092;29;20444;-71
2022/09/18 04:01:18;;;;;;;10.10;2.20;;;10.20;99.90;;;;;;4966488;28;20447;-71
2022/09/18 04:04:08;;;;;;;5.30;2.30;;;10.20;99.90;;;;;;4954442;29;20473;-71
2022/09/18 04:07:04;;;;;;;16.33;2.90;;;10.20;99.90;;;;;;4922469;29;20841;-71
2022/09/18 04:09:53;;;;;;;10.37;4.17;;;10.20;99.90;;;;;;4952985;29;20605;-72
2022/09/18 04:12:22;;;;;;;8.93;2.70;;;10.10;99.90;;;;;;4952896;29;20435;-72
2022/09/18 04:15:06;;;;;;;9.00;2.77;;;10.10;99.90;;;;;;4953080;29;20475;-72
2022/09/18 04:17:36;;;;;;;4.63;2.20;;;10.10;99.90;;;;;;4969222;28;20426;-71
2022/09/18 04:20:07;;;;;;;8.97;3.60;;;10.10;99.90;;;;;;4952445;29;20208;-72
2022/09/18 04:22:35;;;;;;;10.43;3.00;;;10.10;99.90;;;;;;4953872;28;20439;-71
2022/09/18 04:25:05;;;;;;;16.57;4.03;;;10.00;99.90;;;;;;4952515;29;20896;-72
2022/09/18 04:27:35;;;;;;;10.03;3.37;;;10.00;99.90;;;;;;4954386;29;20444;-72
2022/09/18 04:30:04;;;;;;;6.80;2.30;;;10.00;99.90;;;;;;4968697;28;21084;-72
2022/09/18 04:32:35;;;;;;;3.37;3.07;;;10.00;99.90;;;;;;4952736;28;20483;-72
2022/09/18 04:35:05;;;;;;;12.03;2.90;;;10.00;99.90;;;;;;4954092;29;20422;-71
2022/09/18 04:37:34;;;;;;;6.17;2.90;;;10.00;99.90;;;;;;4952405;28;20835;-71
2022/09/18 04:40:04;;;;;;;7.13;3.27;;;10.00;99.90;;;;;;4956378;28;20929;-72
2022/09/18 04:42:34;;;;;;;6.77;3.10;;;10.00;99.90;;;;;;4955757;28;20784;-72
2022/09/18 04:45:05;;;;;;;5.93;3.17;;;10.00;99.90;;;;;;4968382;28;20473;-71
2022/09/18 04:47:34;;;;;;;4.90;3.30;;;10.00;99.90;;;;;;4952267;28;20421;-72
2022/09/18 04:50:07;;;;;;;7.70;2.67;;;10.10;99.90;;;;;;4947307;29;20469;-72
2022/09/18 04:52:36;;;;;;;4.20;2.67;;;10.10;99.90;;;;;;4943412;29;20431;-72
2022/09/18 04:55:06;;;;;;;3.50;2.20;;;10.10;99.90;;;;;;4964244;28;20471;-72
2022/09/18 04:57:36;;;;;;;8.47;3.00;;;10.00;99.90;;;;;;4992079;28;20413;-72
2022/09/18 05:00:09;;;;;;;14.80;3.17;;;10.00;99.90;;;;;;4963404;28;20523;-72
2022/09/18 05:02:38;;;;;;;8.17;2.37;;;10.00;99.90;;;;;;4956947;29;20413;-72
2022/09/18 05:05:10;;;;;;;6.70;2.30;;;10.00;99.90;;;;;;4972697;28;20438;-72
2022/09/18 05:07:39;;;;;;;6.67;2.80;;;10.00;99.90;;;;;;4956426;29;20508;-72
2022/09/18 05:10:09;;;;;;;9.50;3.60;;;10.00;99.90;;;;;;4955846;29;20436;-73
2022/09/18 05:12:40;;;;;;;3.53;2.47;;;10.00;99.90;;;;;;4957360;28;20799;-71
2022/09/18 05:15:10;;;;;;;6.67;2.77;;;10.00;99.90;;;;;;4957396;29;20513;-72
2022/09/18 05:17:40;;;;;;;4.17;1.90;;;10.00;99.90;;;;;;4959110;28;20425;-72
2022/09/18 05:20:12;;;;;;;7.30;2.00;;;10.00;99.90;;;;;;4967375;28;20454;-72
2022/09/18 05:22:45;;;;;;;8.27;2.70;;;9.90;99.90;;;;;;4964107;28;20546;-70
2022/09/18 05:25:20;;;;;;;4.43;2.00;;;10.00;99.90;;;;;;4956580;29;20462;-73
2022/09/18 05:27:54;;;;;;;4.13;3.07;;;9.90;99.90;;;;;;4955932;29;20479;-72
2022/09/18 05:30:25;;;;;;;9.43;2.50;;;10.00;99.90;;;;;;4973116;28;20439;-72
2022/09/18 05:32:59;;;;;;;6.83;2.50;;;10.00;99.90;;;;;;4956027;29;20550;-72
2022/09/18 05:35:33;;;;;;;6.50;2.40;;;10.00;99.90;;;;;;4956133;29;20453;-72
2022/09/18 05:38:03;;;;;;;6.40;1.83;;;10.10;99.90;;;;;;4951953;29;20409;-72
2022/09/18 05:40:35;;;;;;;4.77;1.63;;;10.00;99.90;;;;;;4957788;29;20418;-72
2022/09/18 05:43:06;;;;;;;7.50;2.00;;;10.00;99.90;;;;;;4970914;28;20535;-72
2022/09/18 05:45:36;;;;;;;4.20;1.87;;;10.00;99.90;;;;;;4973366;28;20498;-72
2022/09/18 05:48:16;;;;;;;9.73;2.23;;;9.90;99.90;;;;;;4958599;29;20439;-72
2022/09/18 05:50:49;;;;;;;6.63;2.27;;;9.90;99.90;;;;;;4957232;29;20428;-72
2022/09/18 05:53:21;;;;;;;7.37;2.03;;;9.80;99.90;;;;;;4955015;28;20494;-72
2022/09/18 05:56:01;;;;;;;12.10;2.20;;;9.80;99.90;;;;;;4954822;29;20451;-73
2022/09/18 05:58:31;;;;;;;6.80;2.70;;;9.80;99.90;;;;;;4963963;29;20498;-73
2022/09/18 06:01:03;;;;;;;4.03;1.47;;;9.80;99.90;;;;;;4975378;28;20422;-72
2022/09/18 06:04:04;;;;;;;14.23;2.00;;;9.80;99.90;;;;;;4939648;29;20472;-72
2022/09/18 06:07:01;;;;;;;7.50;1.60;;;9.90;99.90;;;;;;4939410;29;20213;-72
2022/09/18 06:09:30;;;;;;;4.73;2.47;;;10.00;99.90;;;;;;4957577;29;20422;-72
2022/09/18 06:11:59;;;;;;;4.73;1.53;;;10.00;99.90;;;;;;4959707;28;20546;-73
2022/09/18 06:14:34;;;;;;;11.93;2.40;;;10.00;99.90;;;;;;4959522;29;20540;-72
2022/09/18 06:17:03;;;;;;;6.57;2.00;;;10.10;99.90;;;;;;4958271;29;20897;-72
2022/09/18 06:19:35;;;;;;;6.40;1.70;;;10.10;99.90;;;;;;4958595;29;20443;-72
2022/09/18 06:22:05;;;;;;;9.90;2.60;;;10.00;99.90;;;;;;4957367;29;20473;-72
2022/09/18 06:24:35;;;;;;;4.80;2.07;;;10.10;99.90;;;;;;4954609;29;20459;-72
2022/09/18 06:27:09;;;;;;;4.40;1.30;;;10.10;99.90;;;;;;4954273;29;20491;-72
2022/09/18 06:29:39;;;;;;;8.40;1.50;;;10.10;99.90;;;;;;4954019;29;20455;-71
2022/09/18 06:32:14;;;;;;;4.50;2.10;;;10.10;99.90;;;;;;4953884;28;20946;-72
2022/09/18 06:34:43;;;;;;;14.90;2.90;;;10.20;99.90;;;;;;4966745;28;20490;-72
2022/09/18 06:37:15;;;;;;;4.70;2.03;;;10.20;99.90;;;;;;4945570;29;20436;-72
2022/09/18 06:39:44;;;;;;;4.93;1.53;;;10.20;99.90;;;;;;4955620;29;20422;-72
2022/09/18 06:42:32;;;;;;;9.93;1.70;;;10.30;99.90;;;;;;4953879;29;20479;-73
2022/09/18 06:45:33;;;;;;;6.00;1.43;;;10.40;99.90;;;;;;4935285;29;20529;-73
2022/09/18 06:48:06;;;;;;;13.63;2.10;;;10.50;99.90;;;;;;4953018;28;20458;-72
2022/09/18 06:50:37;;;;;;;11.03;2.00;;;10.70;99.90;;;;;;4960871;28;20970;-72
2022/09/18 06:53:08;;;;;;;13.07;2.00;;;10.80;99.90;;;;;;4953791;29;20451;-72
2022/09/18 06:55:50;;;;;;;6.90;2.10;;;10.80;98.40;;;;;;4953355;29;20449;-73
2022/09/18 06:58:21;;;;;;;6.80;2.00;;;10.80;99.90;;;;;;4953661;29;20464;-73
2022/09/18 07:00:52;;;;;;;12.73;2.20;;;10.90;1.00;;;;;;4954004;29;20934;-74
2022/09/18 07:03:29;;;;;;;7.23;1.47;;;10.90;99.90;;;;;;4953745;29;20473;-73
2022/09/18 07:06:21;;;;;;;9.30;2.13;;;11.00;99.90;;;;;;4936751;29;20450;-73
2022/09/18 07:08:53;;;;;;;11.67;2.47;;;11.00;49.20;;;;;;4953932;29;20451;-72
2022/09/18 07:11:45;;;;;;;3.67;1.70;;;11.00;99.90;;;;;;4950984;28;20455;-73
2022/09/18 07:14:14;;;;;;;7.23;1.60;;;11.00;99.90;;;;;;4969266;28;20998;-72
2022/09/18 07:16:43;;;;;;;4.30;1.70;;;11.00;21.20;;;;;;4953403;29;20418;-73
2022/09/18 07:19:12;;;;;;;3.53;2.27;;;11.10;1.00;;;;;;4966145;28;20567;-73
2022/09/18 07:21:41;;;;;;;4.53;1.90;;;11.10;1.00;;;;;;4951270;29;20474;-73
2022/09/18 07:24:11;;;;;;;4.10;2.23;;;11.20;1.00;;;;;;4953567;29;20463;-72
2022/09/18 07:26:40;;;;;;;5.73;1.47;;;11.30;1.00;;;;;;4956063;28;20429;-73
2022/09/18 07:29:10;;;;;;;11.40;1.83;;;11.40;1.00;;;;;;4956882;28;20970;-72
2022/09/18 07:31:39;;;;;;;10.20;2.50;;;11.30;1.00;;;;;;4953245;29;20514;-73
2022/09/18 07:34:10;;;;;;;6.90;1.30;;;11.40;1.00;;;;;;4967228;28;20470;-73
2022/09/18 07:36:39;;;;;;;7.70;1.20;;;11.40;1.00;;;;;;4953884;28;20452;-73
2022/09/18 07:39:08;;;;;;;6.10;2.07;;;11.50;1.00;;;;;;4953419;29;20492;-73
2022/09/18 07:42:01;;;;;;;9.13;2.50;;;11.60;1.00;;;;;;4943599;28;20635;-72
2022/09/18 07:44:36;;;;;;;3.80;1.60;;;11.80;1.00;;;;;;4963544;28;20476;-73
2022/09/18 07:47:06;;;;;;;5.57;1.27;;;11.80;99.90;;;;;;4953018;28;20467;-74
2022/09/18 07:49:39;;;;;;;9.00;1.50;;;11.80;99.90;;;;;;4958148;29;20419;-74
2022/09/18 07:52:09;;;;;;;10.20;2.40;;;11.70;99.90;;;;;;4970946;28;20421;-74
2022/09/18 07:54:45;;;;;;;3.33;1.33;;;11.60;99.90;;;;;;4958731;28;20446;-72
2022/09/18 07:57:27;;;;;;;12.73;2.20;;;11.60;99.90;;;;;;4957612;29;20447;-73
2022/09/18 08:00:20;;;;;;;6.13;1.60;;;11.70;99.90;;;;;;4974490;28;20844;-72
2022/09/18 08:02:51;;;;;;;8.30;1.60;;;11.80;99.90;;;;;;4964768;29;20493;-73
2022/09/18 08:05:40;;;;;;;3.83;1.20;;;11.90;99.90;;;;;;4965105;29;20442;-73
2022/09/18 08:08:12;;;;;;;5.37;1.37;;;12.00;99.90;;;;;;4954072;29;20457;-73
2022/09/18 08:11:00;;;;;;;9.10;2.10;;;12.30;99.90;;;;;;4969993;28;20964;-73
2022/09/18 08:13:57;;;;;;;3.80;1.67;;;12.40;99.90;;;;;;4954590;28;20509;-74
2022/09/18 08:16:47;;;;;;;4.10;1.30;;;12.40;99.90;;;;;;4938331;29;20997;-74
2022/09/18 08:19:28;;;;;;;9.63;2.27;;;12.50;99.90;;;;;;4951126;29;20426;-73
2022/09/18 08:22:06;;;;;;;7.43;2.43;;;12.60;99.90;;;;;;4954701;28;20730;-73
2022/09/18 08:24:38;;;;;;;12.90;1.70;;;12.70;99.90;;;;;;4972646;28;20993;-73
2022/09/18 08:27:07;;;;;;;5.93;1.30;;;12.80;99.90;;;;;;4964415;28;20542;-74
2022/09/18 08:29:37;;;;;;;7.90;1.43;;;12.70;99.90;;;;;;4962811;28;20499;-74
2022/09/18 08:32:09;;;;;;;4.53;1.53;;;12.50;99.90;;;;;;4975688;28;20409;-72
2022/09/18 08:34:38;;;;;;;5.33;1.10;;;12.40;99.90;;;;;;4960959;28;20438;-73
2022/09/18 08:37:07;;;;;;;6.37;1.67;;;12.70;99.90;;;;;;4956917;29;20451;-73
2022/09/18 08:39:54;;;;;;;9.13;1.93;;;12.90;99.90;;;;;;4952743;28;20427;-73
2022/09/18 08:42:46;;;;;;;2.83;1.43;;;13.10;99.90;;;;;;4971327;28;20413;-73
2022/09/18 08:45:37;;;;;;;6.13;2.27;;;13.20;99.90;;;;;;4960530;28;21039;-72
2022/09/18 08:48:13;;;;;;;9.27;2.57;;;13.40;99.90;;;;;;4957701;29;20815;-73
2022/09/18 08:50:50;;;;;;;7.70;1.73;;;13.40;91.00;;;;;;4961930;28;20433;-73
2022/09/18 08:53:25;;;;;;;12.17;2.30;;;13.70;94.60;;;;;;4955855;28;20495;-73
2022/09/18 08:56:24;;;;;;;5.70;1.43;;;13.60;72.10;;;;;;4950286;28;20443;-73
2022/09/18 08:59:22;;;;;;;5.07;1.73;;;13.70;77.40;;;;;;4971725;28;20438;-73
2022/09/18 09:02:08;;;;;;;6.70;1.20;;;13.50;60.30;;;;;;4954844;28;20422;-73
2022/09/18 09:04:37;;;;;;;7.83;1.83;;;13.50;77.30;;;;;;4939088;28;20475;-73
2022/09/18 09:07:19;;;;;;;8.30;2.30;;;13.60;61.90;;;;;;4956363;29;21002;-73
2022/09/18 09:10:20;;;;;;;4.67;1.13;;;13.70;47.70;;;;;;4963446;28;20427;-73
2022/09/18 09:12:58;;;;;;;3.87;1.43;;;13.60;46.50;;;;;;4965122;28;20469;-75
2022/09/18 09:15:41;;;;;;;16.73;2.90;;;13.70;43.60;;;;;;4954879;28;20845;-74
2022/09/18 09:18:18;;;;;;;2.03;1.37;;;13.90;47.70;;;;;;4951040;29;20443;-73
2022/09/18 09:20:53;;;;;;;4.60;1.40;;;14.10;36.50;;;;;;4956185;29;20446;-73
2022/09/18 09:23:41;;;;;;;5.37;1.77;;;14.30;33.60;;;;;;4955258;29;20450;-73
2022/09/18 09:26:34;;;;;;;4.70;1.70;;;14.30;28.70;;;;;;4953517;28;20457;-73
2022/09/18 09:29:27;;;;;;;4.37;1.33;;;14.40;27.10;;;;;;4956924;28;20465;-72
2022/09/18 09:32:31;;;;;;;5.23;2.00;;;14.20;21.30;;;;;;4897561;29;20427;-73
2022/09/18 09:35:31;;;;;;;11.63;1.93;;;14.40;29.60;;;;;;4946628;28;20485;-73
2022/09/18 09:38:11;;;;;;;3.60;1.30;;;14.50;19.10;;;;;;4965978;28;20450;-73
2022/09/18 09:40:44;;;;;;;4.23;1.00;;;14.70;15.90;;;;;;4953283;28;20429;-74
2022/09/18 09:43:22;;;;;;;3.97;1.63;;;14.70;9.60;;;;;;4951308;28;20480;-74
2022/09/18 09:45:54;;;;;;;3.83;1.30;;;14.90;8.20;;;;;;4957426;28;20965;-73
2022/09/18 09:48:27;;;;;;;8.20;2.10;;;14.60;4.70;;;;;;4936976;29;20464;-73
2022/09/18 09:51:08;;;;;;;4.60;1.47;;;14.30;2.50;;;;;;4952182;28;20783;-73
2022/09/18 09:53:38;;;;;;;6.17;1.20;;;14.10;2.30;;;;;;4955977;28;20451;-73
2022/09/18 09:56:17;;;;;;;5.87;1.60;;;14.10;2.40;;;;;;4955451;29;20697;-73
2022/09/18 09:58:54;;;;;;;10.13;1.73;;;14.20;5.00;;;;;;4947589;29;20403;-73
2022/09/18 10:01:26;;;;;;;5.23;1.13;;;14.10;4.80;;;;;;4955199;28;20674;-73
2022/09/18 10:04:06;;;;;;;3.93;1.30;;;13.80;4.90;;;;;;4956592;28;20533;-73
2022/09/18 10:06:51;;;;;;;4.33;1.03;;;13.60;8.60;;;;;;4975170;28;20497;-73
2022/09/18 10:09:29;;;;;;;4.47;1.20;;;13.90;15.30;;;;;;4958316;28;20463;-73
2022/09/18 10:12:05;;;;;;;4.20;0.90;;;14.20;14.50;;;;;;4942638;28;20423;-73
2022/09/18 10:14:40;;;;;;;3.80;1.83;;;14.50;9.50;;;;;;4955728;28;20464;-74
2022/09/18 10:17:12;;;;;;;6.80;1.73;;;14.40;5.90;;;;;;4970919;28;20767;-73
2022/09/18 10:19:43;;;;;;;4.13;1.13;;;14.60;4.60;;;;;;4956245;29;20411;-73
2022/09/18 10:22:19;;;;;;;5.40;1.70;;;14.90;1.00;;;;;;4956660;29;20473;-73
2022/09/18 10:24:54;;;;;;;7.07;1.73;;;15.30;1.00;;;;;;4956613;28;20562;-73
2022/09/18 10:27:26;;;;;;;2.13;1.10;;;15.20;1.00;;;;;;4957451;28;20429;-74
2022/09/18 10:29:55;;;;;;;3.87;1.10;;;14.90;1.00;;;;;;4961610;28;20479;-75
2022/09/18 10:32:43;;;;;;;5.80;1.90;;;14.60;1.00;;;;;;4972129;28;20933;-73
2022/09/18 10:35:45;;;;;;;5.33;1.80;;;14.40;1.00;;;;;;4972964;28;20507;-74
2022/09/18 10:38:36;;;;;;;6.30;1.07;;;14.10;1.00;;;;;;4954844;29;20430;-73
2022/09/18 10:41:30;;;;;;;7.80;1.40;;;14.10;1.00;;;;;;4954620;29;20888;-74
2022/09/18 10:44:07;;;;;;;2.13;1.23;;;13.90;1.00;;;;;;4959732;28;20968;-74
2022/09/18 10:46:49;;;;;;;2.37;0.83;;;14.00;1.00;;;;;;4956679;28;20801;-74
2022/09/18 10:49:23;;;;;;;9.20;1.10;;;14.20;1.00;;;;;;4956779;28;20816;-74
2022/09/18 10:52:35;;;;;;;3.73;1.13;;;14.50;1.00;;;;;;4958115;29;20426;-74
2022/09/18 10:55:15;;;;;;;2.50;0.77;;;14.60;1.00;;;;;;4952087;29;20478;-74
2022/09/18 10:58:07;;;;;;;3.20;1.10;;;14.10;1.00;;;;;;4953791;29;20436;-74
2022/09/18 11:00:39;;;;;;;5.50;2.10;;;13.80;1.00;;;;;;4959160;29;20402;-74
2022/09/18 11:03:30;;;;;;;3.67;1.20;;;13.50;1.00;;;;;;4953908;29;20391;-74
2022/09/18 11:06:02;;;;;;;4.17;1.07;;;13.30;8.60;;;;;;4954114;28;20445;-74
2022/09/18 11:08:34;;;;;;;2.40;0.80;;;13.60;13.10;;;;;;4972154;28;20432;-75
2022/09/18 11:11:07;;;;;;;3.30;1.50;;;13.70;5.10;;;;;;4969362;28;20453;-74
2022/09/18 11:13:44;;;;;;;4.10;1.70;;;13.80;2.20;;;;;;4953336;28;20441;-74
2022/09/18 11:16:24;;;;;;;6.23;0.90;;;14.00;1.00;;;;;;4965408;28;20428;-73
2022/09/18 11:19:06;;;;;;;3.50;1.30;;;14.10;1.00;;;;;;4955255;29;20405;-74
2022/09/18 11:21:49;;;;;;;10.57;2.37;;;14.10;1.00;;;;;;4958371;29;20634;-74
2022/09/18 11:24:26;;;;;;;3.70;1.10;;;14.00;1.00;;;;;;4960029;28;20442;-73
2022/09/18 11:27:16;;;;;;;1.53;1.00;;;13.80;1.00;;;;;;4957804;29;20419;-73
2022/09/18 11:29:44;;;;;;;7.53;1.70;;;13.70;1.00;;;;;;4959881;29;20554;-74
2022/09/18 11:32:19;;;;;;;2.93;0.90;;;13.50;1.00;;;;;;4960743;29;20402;-73
2022/09/18 11:34:53;;;;;;;4.40;1.10;;;13.30;1.00;;;;;;4971559;28;20511;-73
2022/09/18 11:37:32;;;;;;;2.90;1.03;;;13.40;1.00;;;;;;4952177;29;20449;-74
2022/09/18 11:40:20;;;;;;;3.83;1.00;;;13.60;1.00;;;;;;4947423;29;20461;-74
2022/09/18 11:42:54;;;;;;;1.47;0.80;;;13.80;1.00;;;;;;4954160;29;20551;-75
2022/09/18 11:45:43;;;;;;;3.07;1.50;;;13.90;1.00;;;;;;4963479;28;20450;-74
2022/09/18 11:48:24;;;;;;;3.53;1.27;;;14.30;1.00;;;;;;4959007;29;20478;-73
2022/09/18 11:50:56;;;;;;;2.83;0.80;;;14.60;1.00;;;;;;4957745;28;20968;-74
2022/09/18 11:53:29;;;;;;;4.97;1.40;;;14.60;1.00;;;;;;4959538;28;20443;-75
2022/09/18 11:56:06;;;;;;;2.33;0.70;;;14.60;1.00;;;;;;4957778;29;20483;-74
2022/09/18 11:58:43;;;;;;;4.60;1.30;;;14.60;1.00;;;;;;4957156;28;20440;-74
2022/09/18 12:01:25;;;;;;;3.20;0.87;;;15.00;1.00;;;;;;4973504;28;20839;-74
2022/09/18 12:04:00;;;;;;;6.27;1.37;;;15.30;1.00;;;;;;4970351;28;20429;-73
2022/09/18 12:06:36;;;;;;;2.20;1.40;;;15.60;1.00;;;;;;4975975;28;20422;-74
2022/09/18 12:09:12;;;;;;;2.97;1.00;;;16.00;1.00;;;;;;4950795;29;20437;-73
2022/09/18 12:11:48;;;;;;;2.20;0.97;;;14.90;1.00;;;;;;4981791;28;20438;-74
2022/09/18 12:14:23;;;;;;;3.70;1.30;;;13.80;1.00;;;;;;4957720;28;20458;-72
2022/09/18 12:17:32;;;;;;;2.90;0.73;;;12.60;1.00;;;;;;4949905;29;20426;-71
2022/09/18 12:20:07;;;;;;;2.37;1.27;;;12.10;59.20;;;;;;4965694;28;20502;-72
2022/09/18 12:22:44;;;;;;;1.53;0.87;;;11.80;99.90;;;;;;4966272;28;20807;-73
2022/09/18 12:25:17;;;;;;;2.17;0.93;;;11.80;99.90;;;;;;4957870;28;21083;-72
2022/09/18 12:28:14;;;;;;;1.50;0.87;;;11.70;99.90;;;;;;4953596;28;20397;-73
2022/09/18 12:30:55;;;;;;;2.40;0.87;;;11.90;99.90;;;;;;4957948;29;20509;-73
2022/09/18 12:33:37;;;;;;;1.70;0.80;;;12.30;99.90;;;;;;4971063;28;20473;-73
2022/09/18 12:36:38;;;;;;;3.30;1.00;;;12.70;99.90;;;;;;4958427;28;20797;-73
2022/09/18 12:39:26;;;;;;;3.90;1.00;;;13.00;26.40;;;;;;4947095;29;20981;-71
2022/09/18 12:42:04;;;;;;;1.67;1.20;;;13.30;22.20;;;;;;4957863;29;20502;-74
2022/09/18 12:45:11;;;;;;;4.13;1.00;;;13.50;1.70;;;;;;4959163;29;20584;-76
2022/09/18 12:47:52;;;;;;;1.90;0.90;;;13.70;1.00;;;;;;4919431;28;20525;-73
2022/09/18 12:50:42;;;;;;;7.40;1.70;;;14.00;1.00;;;;;;4955547;28;20469;-73
2022/09/18 12:53:26;;;;;;;3.67;1.17;;;14.00;1.00;;;;;;4958579;28;20480;-74
2022/09/18 12:56:19;;;;;;;2.47;1.20;;;14.00;1.00;;;;;;4963312;28;20952;-74
2022/09/18 12:59:19;;;;;;;3.17;1.50;;;14.00;1.00;;;;;;4946627;29;20487;-74
2022/09/18 13:01:54;;;;;;;3.43;1.27;;;14.30;1.00;;;;;;4943658;29;20476;-74
2022/09/18 13:04:28;;;;;;;5.70;1.30;;;14.50;1.00;;;;;;4960496;29;20470;-73
2022/09/18 13:07:04;;;;;;;1.47;0.90;;;14.60;1.00;;;;;;4961027;28;20461;-74
2022/09/18 13:09:39;;;;;;;2.03;0.90;;;14.40;1.00;;;;;;4961383;28;20435;-73
2022/09/18 13:12:15;;;;;;;3.23;0.93;;;14.40;1.00;;;;;;4960322;28;20427;-73
2022/09/18 13:14:49;;;;;;;6.40;1.20;;;14.60;1.00;;;;;;4957136;28;20471;-73
2022/09/18 13:17:21;;;;;;;3.30;1.20;;;14.80;1.00;;;;;;4973972;28;20500;-74
2022/09/18 13:19:56;;;;;;;3.60;0.90;;;14.70;1.00;;;;;;4962749;28;20805;-74
2022/09/18 13:22:30;;;;;;;1.97;1.07;;;14.50;1.00;;;;;;4971961;28;20442;-73
2022/09/18 13:25:00;;;;;;;1.40;0.73;;;14.50;1.00;;;;;;4951543;29;20464;-73
2022/09/18 13:27:31;;;;;;;1.47;0.70;;;14.30;1.00;;;;;;4959986;28;20474;-72
2022/09/18 13:30:16;;;;;;;11.70;0.83;;;14.10;1.00;;;;;;4956076;28;20541;-73
2022/09/18 13:32:45;;;;;;;1.97;1.13;;;13.90;1.00;;;;;;4956438;29;20417;-74
2022/09/18 13:35:25;;;;;;;1.83;0.90;;;14.10;1.00;;;;;;4956328;29;20476;-73
2022/09/18 13:38:16;;;;;;;1.57;0.60;;;14.40;1.00;;;;;;4954249;29;20409;-74